createdAt,value
2023-04-08T00:01:42.382Z,101450.20
2023-04-08T00:04:11.273Z,101450.48
2023-04-08T00:06:40.435Z,101449.23
2023-04-08T00:09:09.148Z,101442.91
2023-04-08T00:11:38.174Z,101452.11
2023-04-08T00:14:07.139Z,101451.49
2023-04-08T00:16:35.945Z,101449.40
2023-04-08T00:19:06.759Z,101451.43
2023-04-08T00:21:35.526Z,101448.78
2023-04-08T00:24:04.490Z,101451.43
2023-04-08T00:26:33.422Z,101453.05
2023-04-08T00:29:02.170Z,101455.60
2023-04-08T00:31:31.234Z,101456.23
2023-04-08T00:34:00.659Z,101457.11
2023-04-08T00:36:29.937Z,101456.95
2023-04-08T00:38:58.611Z,101463.18
2023-04-08T00:41:27.349Z,101461.98
2023-04-08T00:43:56.093Z,101463.98
2023-04-08T00:46:24.932Z,101467.04
2023-04-08T00:48:55.193Z,101468.41
2023-04-08T00:51:23.869Z,101462.90
2023-04-08T00:53:52.592Z,101468.63
2023-04-08T00:56:23.091Z,101466.31
2023-04-08T00:58:55.263Z,101467.23
2023-04-08T01:01:58.019Z,101466.26
2023-04-08T01:04:56.139Z,101466.42
2023-04-08T01:07:32.996Z,101470.70
2023-04-08T01:10:12.897Z,101474.59
2023-04-08T01:12:50.559Z,101474.02
2023-04-08T01:15:19.651Z,101471.36
2023-04-08T01:17:53.416Z,101471.86
2023-04-08T01:20:24.330Z,101469.71
2023-04-08T01:23:03.810Z,101473.23
2023-04-08T01:25:38.418Z,101472.00
2023-04-08T01:28:19.463Z,101473.48
2023-04-08T01:30:50.158Z,101476.26
2023-04-08T01:33:21.624Z,101478.69
2023-04-08T01:35:52.227Z,101479.48
2023-04-08T01:38:23.506Z,101477.20
2023-04-08T01:40:55.155Z,101481.25
2023-04-08T01:43:25.451Z,101481.41
2023-04-08T01:45:58.477Z,101482.04
2023-04-08T01:48:28.644Z,101489.09
2023-04-08T01:51:00.574Z,101487.63
2023-04-08T01:53:29.358Z,101486.30
2023-04-08T01:56:06.459Z,101487.59
2023-04-08T01:58:43.112Z,101485.16
2023-04-08T02:01:17.399Z,101485.40
2023-04-08T02:03:47.877Z,101488.90
2023-04-08T02:06:16.678Z,101484.89
2023-04-08T02:08:46.272Z,101484.25
2023-04-08T02:11:15.155Z,101482.42
2023-04-08T02:13:43.944Z,101479.55
2023-04-08T02:16:39.353Z,101481.98
2023-04-08T02:19:38.363Z,101485.98
2023-04-08T02:22:18.911Z,101488.55
2023-04-08T02:24:48.535Z,101493.70
2023-04-08T02:27:19.765Z,101497.71
2023-04-08T02:29:50.217Z,101495.34
2023-04-08T02:32:19.608Z,101496.92
2023-04-08T02:34:49.442Z,101498.74
2023-04-08T02:37:18.306Z,101498.66
2023-04-08T02:39:47.014Z,101498.05
2023-04-08T02:42:15.874Z,101498.25
2023-04-08T02:44:44.655Z,101496.17
2023-04-08T02:47:13.573Z,101497.58
2023-04-08T02:49:42.315Z,101497.67
2023-04-08T02:52:10.998Z,101501.69
2023-04-08T02:54:39.703Z,101500.96
2023-04-08T02:57:08.343Z,101504.58
2023-04-08T02:59:37.939Z,101502.02
2023-04-08T03:02:06.802Z,101501.55
2023-04-08T03:04:35.639Z,101499.91
2023-04-08T03:07:04.533Z,101501.85
2023-04-08T03:09:34.045Z,101499.83
2023-04-08T03:12:02.695Z,101503.70
2023-04-08T03:14:31.668Z,101505.95
2023-04-08T03:17:00.824Z,101506.19
2023-04-08T03:19:29.631Z,101505.59
2023-04-08T03:21:58.379Z,101506.14
2023-04-08T03:24:27.217Z,101507.98
2023-04-08T03:26:55.930Z,101509.15
2023-04-08T03:29:24.671Z,101510.85
2023-04-08T03:31:53.823Z,101510.77
2023-04-08T03:34:22.582Z,101514.49
2023-04-08T03:36:51.579Z,101514.89
2023-04-08T03:39:20.300Z,101520.51
2023-04-08T03:41:49.002Z,101518.83
2023-04-08T03:44:17.762Z,101515.97
2023-04-08T03:46:46.422Z,101521.82
2023-04-08T03:49:15.118Z,101521.92
2023-04-08T03:51:43.770Z,101524.09
2023-04-08T03:54:12.442Z,101529.92
2023-04-08T03:56:41.095Z,101530.90
2023-04-08T03:59:09.752Z,101532.81
2023-04-08T04:01:40.025Z,101531.27
2023-04-08T04:04:10.359Z,101529.25
2023-04-08T04:06:39.241Z,101526.83
2023-04-08T04:09:07.966Z,101531.40
2023-04-08T04:11:36.642Z,101526.91
2023-04-08T04:14:05.385Z,101525.80
2023-04-08T04:16:34.091Z,101527.26
2023-04-08T04:19:02.743Z,101527.61
2023-04-08T04:21:31.545Z,101528.83
2023-04-08T04:24:00.278Z,101531.52
2023-04-08T04:26:28.974Z,101532.19
2023-04-08T04:28:57.663Z,101539.46
2023-04-08T04:31:29.719Z,101537.30
2023-04-08T04:33:58.466Z,101539.83
2023-04-08T04:36:27.673Z,101543.77
2023-04-08T04:38:56.907Z,101544.01
2023-04-08T04:41:25.681Z,101546.81
2023-04-08T04:43:54.402Z,101551.67
2023-04-08T04:46:23.183Z,101555.23
2023-04-08T04:48:52.202Z,101553.55
2023-04-08T04:51:21.304Z,101553.11
2023-04-08T04:53:50.208Z,101560.68
2023-04-08T04:56:19.787Z,101561.52
2023-04-08T04:58:48.848Z,101563.55
2023-04-08T05:01:17.812Z,101564.36
2023-04-08T05:03:46.728Z,101566.84
2023-04-08T05:06:15.800Z,101571.80
2023-04-08T05:08:44.746Z,101574.08
2023-04-08T05:11:13.644Z,101577.48
2023-04-08T05:13:42.401Z,101577.77
2023-04-08T05:16:11.486Z,101582.92
2023-04-08T05:18:40.293Z,101583.45
2023-04-08T05:21:09.081Z,101587.36
2023-04-08T05:23:38.145Z,101585.71
2023-04-08T05:26:10.144Z,101588.91
2023-04-08T05:28:38.902Z,101589.83
2023-04-08T05:31:07.820Z,101585.12
2023-04-08T05:33:36.573Z,101588.38
2023-04-08T05:36:05.530Z,101588.56
2023-04-08T05:38:34.789Z,101574.30
2023-04-08T05:41:03.972Z,101585.41
2023-04-08T05:43:36.734Z,101587.30
2023-04-08T05:46:10.167Z,101586.21
2023-04-08T05:48:38.888Z,101584.99
2023-04-08T05:51:14.138Z,101587.89
2023-04-08T05:53:42.921Z,101584.91
2023-04-08T05:56:11.587Z,101591.23
2023-04-08T05:58:40.277Z,101594.77
2023-04-08T06:01:09.034Z,101597.52
2023-04-08T06:03:37.865Z,101601.17
2023-04-08T06:06:12.618Z,101597.96
2023-04-08T06:08:41.495Z,101601.34
2023-04-08T06:11:10.242Z,101603.84
2023-04-08T06:13:39.232Z,101606.59
2023-04-08T06:16:19.618Z,101610.38
2023-04-08T06:18:50.071Z,101611.42
2023-04-08T06:21:19.440Z,101612.78
2023-04-08T06:23:48.165Z,101616.52
2023-04-08T06:26:17.152Z,101622.56
2023-04-08T06:28:45.988Z,101622.84
2023-04-08T06:31:14.746Z,101627.41
2023-04-08T06:33:43.432Z,101633.98
2023-04-08T06:36:13.552Z,101634.94
2023-04-08T06:38:42.312Z,101636.81
2023-04-08T06:41:11.127Z,101635.52
2023-04-08T06:43:39.864Z,101638.69
2023-04-08T06:46:08.600Z,101636.00
2023-04-08T06:48:38.028Z,101639.37
2023-04-08T06:51:08.128Z,101637.34
2023-04-08T06:53:36.886Z,101639.16
2023-04-08T06:56:05.639Z,101638.66
2023-04-08T06:58:34.347Z,101644.52
2023-04-08T07:01:03.560Z,101645.13
2023-04-08T07:03:32.598Z,101644.60
2023-04-08T07:06:01.315Z,101645.16
2023-04-08T07:08:30.038Z,101642.73
2023-04-08T07:10:58.819Z,101647.24
2023-04-08T07:13:27.694Z,101647.76
2023-04-08T07:15:56.483Z,101652.04
2023-04-08T07:18:26.472Z,101649.07
2023-04-08T07:20:55.246Z,101646.45
2023-04-08T07:23:24.223Z,101645.66
2023-04-08T07:25:54.183Z,101649.52
2023-04-08T07:28:22.876Z,101647.97
2023-04-08T07:30:52.003Z,101644.00
2023-04-08T07:33:20.819Z,101650.01
2023-04-08T07:35:49.601Z,101652.11
2023-04-08T07:38:18.470Z,101650.04
2023-04-08T07:40:47.352Z,101646.14
2023-04-08T07:43:16.118Z,101647.73
2023-04-08T07:45:45.006Z,101646.05
2023-04-08T07:48:14.007Z,101649.95
2023-04-08T07:51:08.641Z,101650.67
2023-04-08T07:53:32.012Z,101648.33
2023-04-08T07:56:01.445Z,101648.55
2023-04-08T07:58:32.503Z,101650.84
2023-04-08T08:01:01.597Z,101647.95
2023-04-08T08:03:32.534Z,101647.45
2023-04-08T08:06:02.520Z,101640.88
2023-04-08T08:08:33.707Z,101646.81
2023-04-08T08:11:02.526Z,101643.34
2023-04-08T08:13:31.402Z,101642.13
2023-04-08T08:16:00.488Z,101645.48
2023-04-08T08:18:29.373Z,101647.45
2023-04-08T08:20:58.097Z,101647.63
2023-04-08T08:23:27.389Z,101647.86
2023-04-08T08:26:10.254Z,101647.61
2023-04-08T08:28:40.128Z,101651.14
2023-04-08T08:31:09.195Z,101650.11
2023-04-08T08:33:38.009Z,101648.84
2023-04-08T08:36:07.281Z,101651.11
2023-04-08T08:38:36.038Z,101646.46
2023-04-08T08:41:05.045Z,101651.02
2023-04-08T08:43:34.307Z,101652.71
2023-04-08T08:46:03.974Z,101654.16
2023-04-08T08:48:33.307Z,101655.83
2023-04-08T08:51:02.349Z,101653.74
2023-04-08T08:56:20.799Z,101655.29
2023-04-08T08:58:49.682Z,101655.89
2023-04-08T09:01:40.904Z,101657.30
2023-04-08T09:04:22.835Z,101658.27
2023-04-08T09:07:11.103Z,101656.39
2023-04-08T09:09:51.421Z,101656.71
2023-04-08T09:12:21.111Z,101657.96
2023-04-08T09:14:51.028Z,101656.10
2023-04-08T09:17:38.793Z,101650.45
2023-04-08T09:20:14.333Z,101646.59
2023-04-08T09:23:01.053Z,101654.02
2023-04-08T09:25:34.580Z,101654.31
2023-04-08T09:28:03.640Z,101657.02
2023-04-08T09:30:33.337Z,101657.68
2023-04-08T09:33:07.497Z,101654.71
2023-04-08T09:35:36.885Z,101658.68
2023-04-08T09:38:05.750Z,101659.08
2023-04-08T09:40:36.854Z,101660.89
2023-04-08T09:43:09.257Z,101660.04
2023-04-08T09:45:41.726Z,101665.08
2023-04-08T09:48:24.337Z,101666.59
2023-04-08T09:50:58.263Z,101668.40
2023-04-08T09:53:42.037Z,101668.81
2023-04-08T09:56:14.470Z,101669.45
2023-04-08T09:58:55.118Z,101670.67
2023-04-08T10:01:54.675Z,101669.66
2023-04-08T10:04:41.590Z,101667.36
2023-04-08T10:07:10.968Z,101665.48
2023-04-08T10:09:43.411Z,101663.67
2023-04-08T10:12:12.539Z,101663.55
2023-04-08T10:14:41.303Z,101659.73
2023-04-08T10:17:37.163Z,101657.48
2023-04-08T10:20:36.488Z,101657.29
2023-04-08T10:23:05.758Z,101655.20
2023-04-08T10:25:46.144Z,101653.19
2023-04-08T10:28:18.514Z,101658.49
2023-04-08T10:30:52.361Z,101652.48
2023-04-08T10:33:30.714Z,101650.23
2023-04-08T10:36:10.497Z,101648.84
2023-04-08T10:38:42.590Z,101647.52
2023-04-08T10:41:14.507Z,101650.00
2023-04-08T10:43:47.578Z,101646.11
2023-04-08T10:46:17.568Z,101644.80
2023-04-08T10:49:00.913Z,101644.09
2023-04-08T10:51:34.536Z,101640.50
2023-04-08T10:54:18.162Z,101638.49
2023-04-08T10:56:49.744Z,101641.08
2023-04-08T10:59:30.917Z,101639.69
2023-04-08T11:02:01.777Z,101637.42
2023-04-08T11:04:30.957Z,101639.02
2023-04-08T11:07:00.175Z,101638.05
2023-04-08T11:09:29.228Z,101635.66
2023-04-08T11:11:58.324Z,101631.36
2023-04-08T11:14:27.316Z,101630.23
2023-04-08T11:16:56.210Z,101628.75
2023-04-08T11:19:25.524Z,101634.94
2023-04-08T11:21:54.510Z,101634.75
2023-04-08T11:24:23.804Z,101632.35
2023-04-08T11:26:52.812Z,101631.55
2023-04-08T11:29:22.679Z,101632.64
2023-04-08T11:31:51.813Z,101634.88
2023-04-08T11:34:25.672Z,101628.66
2023-04-08T11:36:54.617Z,101627.72
2023-04-08T11:39:24.432Z,101627.58
2023-04-08T11:41:53.635Z,101631.93
2023-04-08T11:44:34.315Z,101634.08
2023-04-08T11:47:03.286Z,101631.40
2023-04-08T11:49:45.947Z,101629.32
2023-04-08T11:52:15.104Z,101635.27
2023-04-08T11:54:44.238Z,101633.90
2023-04-08T11:57:13.498Z,101635.60
2023-04-08T11:59:42.389Z,101632.15
2023-04-08T12:02:11.798Z,101630.16
2023-04-08T12:04:40.579Z,101628.27
2023-04-08T12:07:10.916Z,101626.55
2023-04-08T12:09:39.582Z,101626.91
2023-04-08T12:12:08.246Z,101622.40
2023-04-08T12:14:38.375Z,101619.65
2023-04-08T12:17:07.061Z,101618.82
2023-04-08T12:19:38.232Z,101617.05
2023-04-08T12:22:07.383Z,101618.40
2023-04-08T12:24:36.307Z,101614.83
2023-04-08T12:27:05.346Z,101617.81
2023-04-08T12:29:34.139Z,101619.41
2023-04-08T12:32:04.601Z,101619.23
2023-04-08T12:34:33.409Z,101614.16
2023-04-08T12:37:02.782Z,101609.80
2023-04-08T12:39:31.494Z,101607.20
2023-04-08T12:42:00.232Z,101605.69
2023-04-08T12:44:28.990Z,101600.03
2023-04-08T12:47:00.605Z,101600.59
2023-04-08T12:49:30.841Z,101600.05
2023-04-08T12:52:01.070Z,101595.36
2023-04-08T12:54:29.793Z,101593.65
2023-04-08T12:56:58.525Z,101595.20
2023-04-08T12:59:27.261Z,101596.44
2023-04-08T13:01:56.277Z,101596.05
2023-04-08T13:04:25.148Z,101595.14
2023-04-08T13:06:53.961Z,101594.17
2023-04-08T13:09:22.663Z,101591.79
2023-04-08T13:11:51.664Z,101587.26
2023-04-08T13:14:20.455Z,101588.30
2023-04-08T13:16:49.218Z,101579.92
2023-04-08T13:19:18.061Z,101586.90
2023-04-08T13:21:46.902Z,101582.77
2023-04-08T13:24:15.586Z,101582.63
2023-04-08T13:26:44.302Z,101578.19
2023-04-08T13:29:13.089Z,101578.52
2023-04-08T13:31:41.923Z,101573.70
2023-04-08T13:34:10.962Z,101572.39
2023-04-08T13:36:39.690Z,101572.20
2023-04-08T13:39:08.533Z,101572.88
2023-04-08T13:41:37.487Z,101570.23
2023-04-08T13:44:06.210Z,101571.56
2023-04-08T13:46:34.892Z,101571.76
2023-04-08T13:49:03.648Z,101568.62
2023-04-08T13:51:32.313Z,101568.61
2023-04-08T13:54:01.497Z,101569.64
2023-04-08T13:56:30.227Z,101570.25
2023-04-08T13:58:59.258Z,101568.45
2023-04-08T14:01:28.427Z,101567.19
2023-04-08T14:03:57.352Z,101566.05
2023-04-08T14:06:27.099Z,101565.10
2023-04-08T14:08:56.001Z,101563.00
2023-04-08T14:11:24.718Z,101562.46
2023-04-08T14:13:53.472Z,101559.00
2023-04-08T14:16:22.300Z,101559.69
2023-04-08T14:18:51.323Z,101560.89
2023-04-08T14:21:20.351Z,101559.66
2023-04-08T14:23:49.083Z,101560.59
2023-04-08T14:26:18.116Z,101560.85
2023-04-08T14:28:48.007Z,101560.02
2023-04-08T14:31:17.146Z,101558.52
2023-04-08T14:33:46.353Z,101558.96
2023-04-08T14:36:15.342Z,101556.30
2023-04-08T14:38:44.627Z,101553.16
2023-04-08T14:41:13.881Z,101554.16
2023-04-08T14:43:44.142Z,101551.73
2023-04-08T14:46:13.397Z,101548.96
2023-04-08T14:48:42.436Z,101550.66
2023-04-08T14:51:11.564Z,101549.98
2023-04-08T14:53:41.134Z,101547.86
2023-04-08T14:56:11.463Z,101545.75
2023-04-08T14:58:40.174Z,101546.05
2023-04-08T15:01:08.890Z,101546.75
2023-04-08T15:03:38.313Z,101546.03
2023-04-08T15:06:07.619Z,101549.19
2023-04-08T15:08:37.104Z,101546.81
2023-04-08T15:11:06.637Z,101546.77
2023-04-08T15:13:36.400Z,101543.95
2023-04-08T15:16:06.326Z,101547.39
2023-04-08T15:18:36.459Z,101546.17
2023-04-08T15:21:05.829Z,101546.67
2023-04-08T15:23:34.685Z,101551.41
2023-04-08T15:26:03.466Z,101552.96
2023-04-08T15:28:32.241Z,101552.03
2023-04-08T15:31:01.870Z,101548.80
2023-04-08T15:33:30.618Z,101550.91
2023-04-08T15:36:04.185Z,101547.86
2023-04-08T15:38:33.869Z,101547.46
2023-04-08T15:41:02.780Z,101548.59
2023-04-08T15:43:31.499Z,101551.86
2023-04-08T15:46:00.542Z,101554.49
2023-04-08T15:48:29.447Z,101554.46
2023-04-08T15:50:58.427Z,101558.59
2023-04-08T15:53:27.168Z,101556.27
2023-04-08T15:55:56.420Z,101557.28
2023-04-08T15:58:25.186Z,101561.73
2023-04-08T16:00:55.873Z,101558.84
2023-04-08T16:03:25.177Z,101560.38
2023-04-08T16:05:54.099Z,101557.63
2023-04-08T16:08:23.902Z,101555.36
2023-04-08T16:10:53.249Z,101555.42
2023-04-08T16:13:22.028Z,101556.23
2023-04-08T16:15:50.932Z,101556.71
2023-04-08T16:18:19.686Z,101557.84
2023-04-08T16:20:50.084Z,101560.73
2023-04-08T16:23:18.865Z,101563.13
2023-04-08T16:25:48.179Z,101568.05
2023-04-08T16:28:18.194Z,101565.76
2023-04-08T16:30:48.045Z,101574.41
2023-04-08T16:33:17.089Z,101579.48
2023-04-08T16:35:45.905Z,101578.08
2023-04-08T16:38:15.546Z,101580.06
2023-04-08T16:40:44.317Z,101583.95
2023-04-08T16:43:14.152Z,101585.36
2023-04-08T16:45:43.093Z,101589.84
2023-04-08T16:48:12.941Z,101592.02
2023-04-08T16:50:42.912Z,101595.64
2023-04-08T16:53:11.813Z,101596.86
2023-04-08T16:55:40.618Z,101598.06
2023-04-08T16:58:09.416Z,101601.10
2023-04-08T17:00:39.249Z,101605.73
2023-04-08T17:03:08.025Z,101608.08
2023-04-08T17:05:37.353Z,101607.32
2023-04-08T17:08:06.574Z,101610.70
2023-04-08T17:10:35.387Z,101618.37
2023-04-08T17:13:05.485Z,101625.31
2023-04-08T17:15:36.623Z,101624.44
2023-04-08T17:18:05.513Z,101625.04
2023-04-08T17:20:34.219Z,101630.45
2023-04-08T17:23:03.132Z,101634.20
2023-04-08T17:25:31.896Z,101637.85
2023-04-08T17:28:00.764Z,101637.14
2023-04-08T17:30:29.523Z,101639.67
2023-04-08T17:32:58.211Z,101641.34
2023-04-08T17:35:26.957Z,101640.48
2023-04-08T17:37:55.800Z,101642.59
2023-04-08T17:40:24.804Z,101645.78
2023-04-08T17:42:53.532Z,101650.14
2023-04-08T17:45:22.382Z,101656.02
2023-04-08T17:47:52.341Z,101657.75
2023-04-08T17:50:21.324Z,101661.16
2023-04-08T17:52:50.157Z,101665.16
2023-04-08T17:55:18.911Z,101666.05
2023-04-08T17:57:47.755Z,101667.23
2023-04-08T18:00:16.909Z,101672.14
2023-04-08T18:02:48.239Z,101676.79
2023-04-08T18:05:18.488Z,101681.35
2023-04-08T18:07:47.416Z,101685.59
2023-04-08T18:10:17.426Z,101687.31
2023-04-08T18:12:46.539Z,101689.52
2023-04-08T18:15:16.080Z,101695.42
2023-04-08T18:17:45.144Z,101700.70
2023-04-08T18:20:14.099Z,101701.67
2023-04-08T18:22:43.250Z,101694.18
2023-04-08T18:25:12.099Z,101707.30
2023-04-08T18:27:45.585Z,101709.35
2023-04-08T18:30:16.373Z,101711.49
2023-04-08T18:32:45.315Z,101712.25
2023-04-08T18:35:14.165Z,101715.86
2023-04-08T18:37:43.075Z,101717.83
2023-04-08T18:40:13.055Z,101721.86
2023-04-08T18:42:41.794Z,101724.25
2023-04-08T18:45:10.723Z,101725.75
2023-04-08T18:47:39.465Z,101725.45
2023-04-08T18:50:08.770Z,101727.86
2023-04-08T18:52:37.689Z,101724.92
2023-04-08T18:55:06.787Z,101725.61
2023-04-08T18:57:35.913Z,101726.92
2023-04-08T19:00:05.400Z,101722.66
2023-04-08T19:02:34.136Z,101721.17
2023-04-08T19:05:03.006Z,101720.77
2023-04-08T19:07:31.953Z,101724.48
2023-04-08T19:10:01.158Z,101725.11
2023-04-08T19:12:30.023Z,101720.96
2023-04-08T19:14:59.531Z,101716.01
2023-04-08T19:17:28.265Z,101717.96
2023-04-08T19:19:57.059Z,101717.38
2023-04-08T19:22:25.722Z,101716.89
2023-04-08T19:24:55.227Z,101716.02
2023-04-08T19:27:24.026Z,101720.23
2023-04-08T19:29:52.780Z,101722.48
2023-04-08T19:32:21.969Z,101727.85
2023-04-08T19:34:50.839Z,101727.59
2023-04-08T19:37:19.676Z,101725.44
2023-04-08T19:39:48.550Z,101725.40
2023-04-08T19:42:17.734Z,101722.65
2023-04-08T19:44:47.594Z,101723.90
2023-04-08T19:47:17.811Z,101728.02
2023-04-08T19:49:46.894Z,101727.80
2023-04-08T19:52:15.600Z,101723.40
2023-04-08T19:54:44.639Z,101723.70
2023-04-08T19:57:13.378Z,101718.27
2023-04-08T19:59:42.193Z,101720.21
2023-04-08T20:02:11.157Z,101716.45
2023-04-08T20:04:40.114Z,101716.23
2023-04-08T20:07:09.036Z,101716.33
2023-04-08T20:09:37.873Z,101717.42
2023-04-08T20:12:07.535Z,101719.75
2023-04-08T20:14:39.059Z,101721.06
2023-04-08T20:17:08.219Z,101724.20
2023-04-08T20:19:36.937Z,101725.45
2023-04-08T20:22:05.703Z,101729.36
2023-04-08T20:24:34.432Z,101729.69
2023-04-08T20:27:03.184Z,101729.72
2023-04-08T20:29:32.583Z,101727.16
2023-04-08T20:32:01.358Z,101729.05
2023-04-08T20:34:30.056Z,101728.45
2023-04-08T20:36:58.788Z,101726.83
2023-04-08T20:39:31.275Z,101727.19
2023-04-08T20:42:00.231Z,101726.67
2023-04-08T20:44:29.042Z,101727.81
2023-04-08T20:46:58.191Z,101724.54
2023-04-08T20:49:26.980Z,101722.22
2023-04-08T20:51:55.679Z,101725.25
2023-04-08T20:54:26.196Z,101730.34
2023-04-08T20:56:55.136Z,101731.41
2023-04-08T20:59:23.898Z,101734.94
2023-04-08T21:01:54.628Z,101735.55
2023-04-08T21:04:24.664Z,101739.72
2023-04-08T21:06:53.982Z,101739.78
2023-04-08T21:09:22.766Z,101739.66
2023-04-08T21:11:51.517Z,101734.56
2023-04-08T21:14:20.342Z,101735.15
2023-04-08T21:16:49.153Z,101735.95
2023-04-08T21:19:18.538Z,101737.50
2023-04-08T21:21:47.281Z,101739.48
2023-04-08T21:24:16.314Z,101739.46
2023-04-08T21:26:45.094Z,101737.90
2023-04-08T21:29:14.161Z,101738.00
2023-04-08T21:31:42.976Z,101740.54
2023-04-08T21:34:12.561Z,101740.98
2023-04-08T21:36:41.250Z,101741.91
2023-04-08T21:39:09.974Z,101743.60
2023-04-08T21:41:38.705Z,101741.11
2023-04-08T21:44:07.494Z,101742.92
2023-04-08T21:46:36.454Z,101742.20
2023-04-08T21:49:05.737Z,101742.58
2023-04-08T21:51:34.575Z,101742.47
2023-04-08T21:54:03.464Z,101744.55
2023-04-08T21:56:32.211Z,101745.63
2023-04-08T21:59:01.097Z,101748.05
2023-04-08T22:01:30.344Z,101752.04
2023-04-08T22:03:59.365Z,101751.41
2023-04-08T22:06:32.749Z,101749.31
2023-04-08T22:09:01.945Z,101752.83
2023-04-08T22:11:31.010Z,101753.38
2023-04-08T22:13:59.855Z,101755.42
2023-04-08T22:16:28.712Z,101755.95
2023-04-08T22:18:57.400Z,101758.02
2023-04-08T22:21:26.402Z,101754.55
2023-04-08T22:23:55.175Z,101759.41
2023-04-08T22:26:24.084Z,101753.29
2023-04-08T22:28:53.028Z,101751.75
2023-04-08T22:31:22.379Z,101756.91
2023-04-08T22:33:51.194Z,101754.30
2023-04-08T22:36:19.930Z,101751.55
2023-04-08T22:38:48.734Z,101751.91
2023-04-08T22:41:19.639Z,101752.17
2023-04-08T22:43:49.488Z,101754.25
2023-04-08T22:46:18.604Z,101752.71
2023-04-08T22:48:49.556Z,101752.02
2023-04-08T22:51:18.650Z,101751.52
2023-04-08T22:53:47.402Z,101748.40
2023-04-08T22:56:16.273Z,101747.84
2023-04-08T22:58:45.056Z,101751.31
2023-04-08T23:01:20.976Z,101757.05
2023-04-08T23:03:50.343Z,101757.46
2023-04-08T23:06:19.137Z,101755.42
2023-04-08T23:08:47.897Z,101748.23
2023-04-08T23:11:16.611Z,101743.69
2023-04-08T23:13:45.379Z,101745.86
2023-04-08T23:16:14.216Z,101744.33
2023-04-08T23:18:43.014Z,101741.80
2023-04-08T23:21:11.685Z,101745.23
2023-04-08T23:23:40.548Z,101743.71
2023-04-08T23:26:21.451Z,101743.48
2023-04-08T23:28:50.517Z,101743.48
2023-04-08T23:31:19.626Z,101738.71
2023-04-08T23:33:48.314Z,101738.16
2023-04-08T23:36:17.087Z,101736.48
2023-04-08T23:38:45.783Z,101738.84
2023-04-08T23:41:14.457Z,101735.45
2023-04-08T23:43:43.222Z,101735.96
2023-04-08T23:46:12.033Z,101731.06
2023-04-08T23:48:40.801Z,101731.05
2023-04-08T23:51:11.634Z,101729.94
2023-04-08T23:53:41.263Z,101728.88
2023-04-08T23:56:10.574Z,101723.84
2023-04-08T23:58:39.231Z,101724.22
